Time;durP1;ratioP1;P1;durP2;ratioP2;P2;SDS_P1;SDS_P2;PMS_P1;PMS_P2;Temp;Humidity;BMP_temperature;BMP_pressure;BME280_temperature;BME280_humidity;BME280_pressure;Samples;Min_cycle;Max_cycle;Signal;HPM_P1;HPM_P2
2023/09/27 00:00:10;;;;;;;4.88;3.00;;;17.00;65.80;;;;;;5069010;28;20037;-46
2023/09/27 00:02:41;;;;;;;3.05;2.65;;;16.90;65.70;;;;;;5067226;28;20117;-45
2023/09/27 00:05:10;;;;;;;4.38;2.72;;;16.90;65.70;;;;;;5060040;28;20037;-44
2023/09/27 00:07:39;;;;;;;3.40;2.75;;;16.90;65.70;;;;;;5067129;28;20047;-45
2023/09/27 00:10:11;;;;;;;2.80;2.58;;;16.90;65.70;;;;;;5071129;28;20033;-45
2023/09/27 00:12:39;;;;;;;3.85;2.80;;;16.80;65.90;;;;;;5064122;28;20040;-46
2023/09/27 00:15:08;;;;;;;3.15;2.85;;;16.80;65.80;;;;;;5063337;28;20106;-45
2023/09/27 00:17:35;;;;;;;4.35;3.03;;;16.80;65.80;;;;;;5071411;28;20044;-48
2023/09/27 00:20:10;;;;;;;6.32;3.28;;;16.70;65.80;;;;;;5070993;28;20307;-45
2023/09/27 00:22:40;;;;;;;4.75;3.20;;;16.80;66.00;;;;;;5064699;28;20101;-47
2023/09/27 00:25:08;;;;;;;4.13;3.08;;;16.80;66.00;;;;;;5066310;28;20092;-46
2023/09/27 00:27:36;;;;;;;3.55;2.90;;;16.80;65.90;;;;;;5057734;28;20044;-46
2023/09/27 00:30:04;;;;;;;3.25;2.95;;;16.70;65.80;;;;;;5070758;28;20052;-46
2023/09/27 00:32:35;;;;;;;3.58;2.70;;;16.70;65.90;;;;;;5062880;28;20037;-48
2023/09/27 00:35:02;;;;;;;4.20;2.78;;;16.70;65.80;;;;;;5057528;28;20037;-44
2023/09/27 00:37:31;;;;;;;2.88;2.67;;;16.70;65.80;;;;;;5063302;28;20032;-44
2023/09/27 00:39:58;;;;;;;5.28;3.20;;;16.70;65.80;;;;;;5069180;28;20620;-45
2023/09/27 00:42:27;;;;;;;3.38;2.95;;;16.60;65.90;;;;;;5067862;28;20449;-49
2023/09/27 00:44:54;;;;;;;4.45;2.85;;;16.60;65.80;;;;;;5056644;28;20691;-43
2023/09/27 00:47:21;;;;;;;2.75;2.55;;;16.60;65.90;;;;;;5061453;28;20098;-44
2023/09/27 00:49:53;;;;;;;2.85;2.65;;;16.60;65.90;;;;;;5069340;28;20036;-47
2023/09/27 00:52:20;;;;;;;3.10;2.78;;;16.60;66.00;;;;;;5069823;28;20483;-43
2023/09/27 00:54:47;;;;;;;3.05;2.78;;;16.50;65.90;;;;;;5076885;28;20497;-48
2023/09/27 00:57:14;;;;;;;4.22;2.53;;;16.50;65.80;;;;;;5068116;28;20044;-44
2023/09/27 00:59:42;;;;;;;2.95;2.70;;;16.50;65.80;;;;;;5067319;28;20040;-46
2023/09/27 01:02:12;;;;;;;2.85;2.65;;;16.50;66.40;;;;;;5066406;28;20062;-47
2023/09/27 01:04:42;;;;;;;3.78;3.00;;;16.50;65.90;;;;;;5062511;28;20486;-43
2023/09/27 01:07:12;;;;;;;2.92;2.72;;;16.50;65.90;;;;;;5053129;28;20067;-45
2023/09/27 01:09:39;;;;;;;3.30;2.70;;;16.50;65.90;;;;;;5070771;28;20036;-45
2023/09/27 01:12:07;;;;;;;3.47;3.08;;;16.40;66.00;;;;;;5061880;28;20063;-48
2023/09/27 01:14:34;;;;;;;3.60;3.00;;;16.40;66.10;;;;;;5069948;28;20448;-46
2023/09/27 01:17:09;;;;;;;3.15;2.85;;;16.40;66.00;;;;;;5068810;28;20044;-45
2023/09/27 01:19:38;;;;;;;3.30;3.00;;;16.40;66.10;;;;;;5061783;28;20045;-49
2023/09/27 01:22:05;;;;;;;5.93;3.30;;;16.30;65.90;;;;;;5051501;28;20040;-48
2023/09/27 01:24:44;;;;;;;3.40;2.88;;;16.30;66.00;;;;;;5050160;28;20068;-47
2023/09/27 01:27:13;;;;;;;3.10;2.67;;;16.30;66.10;;;;;;5067018;28;20048;-47
2023/09/27 01:29:51;;;;;;;3.75;2.92;;;16.30;66.20;;;;;;5070290;28;20044;-47
2023/09/27 01:32:19;;;;;;;4.20;3.58;;;16.30;66.10;;;;;;5066712;28;20132;-47
2023/09/27 01:34:45;;;;;;;3.08;2.70;;;16.30;66.10;;;;;;5064603;28;20033;-43
2023/09/27 01:37:15;;;;;;;2.97;2.67;;;16.20;66.70;;;;;;5068250;28;20094;-44
2023/09/27 01:39:45;;;;;;;4.63;2.67;;;16.20;66.10;;;;;;5068871;28;20089;-44
2023/09/27 01:42:13;;;;;;;4.28;2.70;;;16.20;66.10;;;;;;5066606;28;20055;-44
2023/09/27 01:44:40;;;;;;;3.35;2.85;;;16.20;66.10;;;;;;5067436;28;20093;-47
2023/09/27 01:47:06;;;;;;;3.00;2.65;;;16.20;66.10;;;;;;5053721;28;20092;-45
2023/09/27 01:49:34;;;;;;;3.17;2.97;;;16.20;66.20;;;;;;5068594;28;20036;-48
2023/09/27 01:52:04;;;;;;;2.88;2.60;;;16.20;66.20;;;;;;5067118;28;20131;-48
2023/09/27 01:54:33;;;;;;;3.00;2.80;;;16.20;66.20;;;;;;5062878;28;20467;-45
2023/09/27 01:57:00;;;;;;;2.85;2.60;;;16.10;66.10;;;;;;5067972;28;20579;-48
2023/09/27 01:59:30;;;;;;;2.92;2.72;;;16.10;66.10;;;;;;5046743;28;20036;-43
2023/09/27 02:02:00;;;;;;;3.08;2.78;;;16.10;66.10;;;;;;5065997;28;20154;-43
2023/09/27 02:04:27;;;;;;;3.38;2.83;;;16.00;66.10;;;;;;5064653;28;20068;-43
2023/09/27 02:06:57;;;;;;;3.60;2.75;;;16.10;66.10;;;;;;5067871;28;20032;-48
2023/09/27 02:09:24;;;;;;;8.45;3.20;;;16.00;66.80;;;;;;5051644;28;20059;-48
2023/09/27 02:11:51;;;;;;;3.42;2.92;;;16.00;66.10;;;;;;5067398;28;20048;-47
2023/09/27 02:14:17;;;;;;;3.95;3.08;;;16.00;66.20;;;;;;5065262;28;20052;-44
2023/09/27 02:16:46;;;;;;;3.80;2.92;;;16.00;66.20;;;;;;5068747;28;20048;-44
2023/09/27 02:19:13;;;;;;;4.20;3.22;;;16.00;66.20;;;;;;5068306;28;20056;-45
2023/09/27 02:21:41;;;;;;;5.28;4.25;;;15.90;66.20;;;;;;5059788;28;20556;-45
2023/09/27 02:24:15;;;;;;;2.92;2.65;;;15.90;66.20;;;;;;5065885;28;20517;-44
2023/09/27 02:26:41;;;;;;;3.45;3.15;;;15.90;66.20;;;;;;5068607;28;20029;-46
2023/09/27 02:29:08;;;;;;;4.65;3.03;;;15.90;66.10;;;;;;5068401;28;20076;-48
2023/09/27 02:31:35;;;;;;;3.53;3.22;;;15.90;66.20;;;;;;5067244;28;20518;-47
2023/09/27 02:34:08;;;;;;;4.05;3.25;;;15.80;66.20;;;;;;5065330;28;20045;-48
2023/09/27 02:36:34;;;;;;;5.47;3.30;;;15.80;66.10;;;;;;5067947;28;20686;-46
2023/09/27 02:39:05;;;;;;;3.67;3.38;;;15.80;66.20;;;;;;5067695;28;20048;-44
2023/09/27 02:41:42;;;;;;;4.75;3.35;;;15.80;66.30;;;;;;5067901;28;20464;-46
2023/09/27 02:44:09;;;;;;;3.55;3.20;;;15.80;66.30;;;;;;5065943;28;20048;-49
2023/09/27 02:46:36;;;;;;;3.83;3.30;;;15.80;66.30;;;;;;5067143;28;20040;-49
2023/09/27 02:49:04;;;;;;;5.15;3.45;;;15.70;66.30;;;;;;5066555;28;20048;-46
2023/09/27 02:51:33;;;;;;;3.85;3.38;;;15.70;66.40;;;;;;5066534;28;20059;-47
2023/09/27 02:54:00;;;;;;;4.05;3.65;;;15.70;66.50;;;;;;5064069;28;20047;-43
2023/09/27 02:56:27;;;;;;;4.38;3.70;;;15.70;66.60;;;;;;5069482;28;20049;-48
2023/09/27 02:58:56;;;;;;;5.05;3.92;;;15.70;66.70;;;;;;5065155;28;20056;-48
2023/09/27 03:01:25;;;;;;;3.45;3.15;;;15.70;66.90;;;;;;5066708;28;20045;-44
2023/09/27 03:03:52;;;;;;;9.13;3.65;;;15.70;67.00;;;;;;5066755;28;20110;-46
2023/09/27 03:06:21;;;;;;;3.50;3.17;;;15.70;66.90;;;;;;5072821;28;20681;-44
2023/09/27 03:08:50;;;;;;;5.30;3.60;;;15.70;67.00;;;;;;5072861;28;20032;-45
2023/09/27 03:11:23;;;;;;;4.00;3.70;;;15.70;66.90;;;;;;5072577;28;20040;-45
2023/09/27 03:13:53;;;;;;;4.20;3.73;;;15.70;67.00;;;;;;5070662;28;20065;-43
2023/09/27 03:16:25;;;;;;;5.80;4.28;;;15.70;67.00;;;;;;5071502;28;20056;-48
2023/09/27 03:18:52;;;;;;;6.20;3.83;;;15.70;67.00;;;;;;5070897;28;20036;-46
2023/09/27 03:21:24;;;;;;;4.03;3.58;;;15.60;66.90;;;;;;5068484;28;20224;-45
2023/09/27 03:23:54;;;;;;;3.95;3.60;;;15.60;66.90;;;;;;5071104;28;20052;-48
2023/09/27 03:26:24;;;;;;;4.28;3.88;;;15.60;66.90;;;;;;5071646;28;20050;-48
2023/09/27 03:28:52;;;;;;;3.40;3.13;;;15.60;66.80;;;;;;5063425;28;20040;-43
2023/09/27 03:31:19;;;;;;;4.40;4.00;;;15.60;66.70;;;;;;5070161;28;20067;-45
2023/09/27 03:33:49;;;;;;;4.57;4.15;;;15.60;66.70;;;;;;5061726;28;20052;-48
2023/09/27 03:36:17;;;;;;;7.55;4.00;;;15.60;66.70;;;;;;5071344;28;20052;-47
2023/09/27 03:38:44;;;;;;;4.35;3.97;;;15.60;66.60;;;;;;5071347;28;20047;-44
2023/09/27 03:41:16;;;;;;;5.10;3.78;;;15.50;66.70;;;;;;5070272;28;20048;-43
2023/09/27 03:43:46;;;;;;;4.15;3.78;;;15.50;66.60;;;;;;5057637;28;20044;-45
2023/09/27 03:46:19;;;;;;;3.97;3.67;;;15.50;66.70;;;;;;5064468;28;20068;-43
2023/09/27 03:48:50;;;;;;;4.57;3.60;;;15.50;66.80;;;;;;5078846;28;20463;-45
2023/09/27 03:51:26;;;;;;;4.57;3.95;;;15.50;66.80;;;;;;5068415;28;20131;-47
2023/09/27 03:53:53;;;;;;;5.07;3.85;;;15.50;67.00;;;;;;5050966;28;20041;-48
2023/09/27 03:56:22;;;;;;;4.65;3.35;;;15.50;66.80;;;;;;5070390;28;20040;-48
2023/09/27 03:58:49;;;;;;;3.65;3.35;;;15.40;66.80;;;;;;5066907;28;20054;-47
2023/09/27 04:01:16;;;;;;;3.67;3.38;;;15.40;66.80;;;;;;5061801;28;20136;-48
2023/09/27 04:03:43;;;;;;;6.90;4.13;;;15.40;66.80;;;;;;5067281;28;20056;-45
2023/09/27 04:06:10;;;;;;;5.22;3.47;;;15.40;66.90;;;;;;5063671;28;20056;-45
2023/09/27 04:08:36;;;;;;;3.70;3.40;;;15.40;66.90;;;;;;5071732;28;20072;-46
2023/09/27 04:11:08;;;;;;;4.57;4.18;;;15.40;66.90;;;;;;5069895;28;20040;-43
2023/09/27 04:13:39;;;;;;;4.63;3.83;;;15.30;66.90;;;;;;5068044;28;20047;-44
2023/09/27 04:16:10;;;;;;;5.13;3.63;;;15.40;67.00;;;;;;5070809;28;20517;-48
2023/09/27 04:18:36;;;;;;;4.30;3.90;;;15.30;66.90;;;;;;5071668;28;20063;-45
2023/09/27 04:21:07;;;;;;;4.05;3.65;;;15.30;67.00;;;;;;5062611;28;20037;-44
2023/09/27 04:23:36;;;;;;;3.80;3.50;;;15.30;66.90;;;;;;5068769;28;20033;-45
2023/09/27 04:26:07;;;;;;;3.80;3.50;;;15.30;66.70;;;;;;5068558;28;20044;-43
2023/09/27 04:28:34;;;;;;;3.20;3.00;;;15.30;66.80;;;;;;5070404;28;20053;-46
2023/09/27 04:31:03;;;;;;;4.78;4.00;;;15.30;66.90;;;;;;5063048;28;20041;-45
2023/09/27 04:33:33;;;;;;;5.07;3.88;;;15.20;66.80;;;;;;5069919;28;20037;-48
2023/09/27 04:36:02;;;;;;;4.20;3.80;;;15.20;66.80;;;;;;5065644;28;20050;-48
2023/09/27 04:38:28;;;;;;;3.53;3.33;;;15.20;66.90;;;;;;5067525;28;20124;-45
2023/09/27 04:40:58;;;;;;;3.75;3.42;;;15.20;66.90;;;;;;5069823;28;20037;-44
2023/09/27 04:43:28;;;;;;;4.55;4.10;;;15.20;67.00;;;;;;5068280;28;20047;-48
2023/09/27 04:45:58;;;;;;;3.97;3.67;;;15.20;67.10;;;;;;5063393;28;20068;-45
2023/09/27 04:48:25;;;;;;;4.55;4.07;;;15.20;67.10;;;;;;5067518;28;20044;-49
2023/09/27 04:50:57;;;;;;;6.72;4.55;;;15.10;67.20;;;;;;5058836;28;20102;-48
2023/09/27 04:53:26;;;;;;;5.00;4.13;;;15.10;67.20;;;;;;5061871;28;20076;-47
2023/09/27 04:55:58;;;;;;;6.70;4.03;;;15.10;67.70;;;;;;5067996;28;20048;-47
2023/09/27 04:58:26;;;;;;;4.32;3.92;;;15.10;67.60;;;;;;5062463;28;20099;-49
2023/09/27 05:00:56;;;;;;;4.57;3.67;;;15.10;67.60;;;;;;5061599;28;20410;-50
2023/09/27 05:03:23;;;;;;;4.13;3.72;;;15.10;67.50;;;;;;5065561;28;20049;-47
2023/09/27 05:05:50;;;;;;;4.30;3.53;;;15.10;67.40;;;;;;5061491;28;20537;-45
2023/09/27 05:08:19;;;;;;;4.45;4.05;;;15.10;67.40;;;;;;5067415;28;20048;-48
2023/09/27 05:10:46;;;;;;;4.75;3.72;;;15.10;67.40;;;;;;5069013;28;20055;-46
2023/09/27 05:13:12;;;;;;;4.57;4.18;;;15.10;67.50;;;;;;5066881;28;20050;-45
2023/09/27 05:15:46;;;;;;;4.93;4.53;;;15.10;67.60;;;;;;5069173;28;20472;-45
2023/09/27 05:18:17;;;;;;;5.72;4.72;;;15.10;67.80;;;;;;5068358;28;20045;-46
2023/09/27 05:20:47;;;;;;;4.72;4.03;;;15.10;68.20;;;;;;5069390;28;20146;-44
2023/09/27 05:23:14;;;;;;;5.15;4.10;;;15.10;68.40;;;;;;5063168;28;20441;-50
2023/09/27 05:25:41;;;;;;;6.13;4.53;;;15.10;68.70;;;;;;5069522;28;20119;-46
2023/09/27 05:28:12;;;;;;;5.10;4.60;;;15.10;68.90;;;;;;5068395;28;20072;-46
2023/09/27 05:30:41;;;;;;;6.25;4.90;;;15.10;68.90;;;;;;5068853;28;20086;-47
2023/09/27 05:33:13;;;;;;;5.22;4.72;;;15.20;69.20;;;;;;5063816;28;20502;-47
2023/09/27 05:35:40;;;;;;;5.43;4.75;;;15.20;69.10;;;;;;5059441;28;20068;-46
2023/09/27 05:38:12;;;;;;;5.43;4.22;;;15.20;69.00;;;;;;5068516;28;20048;-49
2023/09/27 05:40:43;;;;;;;;;;;15.30;69.20;;;;;;5059107;28;20049;-48
2023/09/27 05:43:10;;;;;;;5.20;4.70;;;15.30;69.20;;;;;;5062570;28;19932;-47
2023/09/27 05:45:40;;;;;;;6.32;4.72;;;15.40;68.70;;;;;;5065036;28;20053;-47
2023/09/27 05:48:11;;;;;;;6.15;5.47;;;15.40;69.00;;;;;;5069714;28;20115;-50
2023/09/27 05:50:40;;;;;;;6.18;5.60;;;15.40;69.20;;;;;;5064919;28;20461;-50
2023/09/27 05:53:12;;;;;;;5.63;5.05;;;15.40;69.30;;;;;;5067303;28;20049;-48
2023/09/27 05:55:42;;;;;;;6.18;5.57;;;15.50;69.50;;;;;;5069743;28;20098;-47
2023/09/27 05:58:10;;;;;;;6.03;4.88;;;15.50;69.60;;;;;;5066641;28;20466;-47
2023/09/27 06:00:46;;;;;;;5.57;5.07;;;15.50;69.50;;;;;;5067602;28;20102;-48
2023/09/27 06:03:13;;;;;;;6.80;5.50;;;15.60;69.60;;;;;;5068729;28;20568;-48
2023/09/27 06:05:40;;;;;;;7.20;5.50;;;15.60;69.50;;;;;;5063840;28;20079;-47
2023/09/27 06:08:09;;;;;;;6.97;5.32;;;15.60;69.50;;;;;;5067125;28;20048;-48
2023/09/27 06:10:36;;;;;;;7.28;5.25;;;15.60;69.60;;;;;;5065162;28;20055;-47
2023/09/27 06:13:03;;;;;;;5.63;5.03;;;15.60;69.50;;;;;;5061918;28;20063;-48
2023/09/27 06:15:33;;;;;;;6.47;5.07;;;15.60;69.40;;;;;;5067779;28;20578;-47
2023/09/27 06:18:00;;;;;;;5.47;4.93;;;15.60;69.50;;;;;;5069091;28;20514;-49
2023/09/27 06:20:30;;;;;;;8.65;5.80;;;15.60;69.30;;;;;;5069825;28;20040;-47
2023/09/27 06:23:00;;;;;;;6.55;5.88;;;15.60;69.20;;;;;;5065664;28;20093;-50
2023/09/27 06:25:30;;;;;;;7.13;5.60;;;15.60;69.10;;;;;;5068775;28;20705;-46
2023/09/27 06:27:57;;;;;;;9.05;5.78;;;15.60;69.20;;;;;;5069866;28;20072;-45
2023/09/27 06:30:26;;;;;;;6.38;5.78;;;15.60;69.10;;;;;;5065748;28;20124;-46
2023/09/27 06:32:55;;;;;;;6.05;5.38;;;15.60;69.20;;;;;;5069227;28;20045;-49
2023/09/27 06:35:27;;;;;;;5.40;4.90;;;15.60;69.10;;;;;;5061691;28;20055;-49
2023/09/27 06:38:00;;;;;;;6.47;5.82;;;15.60;69.30;;;;;;5067452;28;20659;-46
2023/09/27 06:40:29;;;;;;;6.28;5.25;;;15.60;69.50;;;;;;5069835;28;20410;-46
2023/09/27 06:43:00;;;;;;;7.47;5.97;;;15.70;69.60;;;;;;5069031;28;20101;-47
2023/09/27 06:45:29;;;;;;;6.80;5.57;;;15.70;69.60;;;;;;5064288;28;20105;-50
2023/09/27 06:47:56;;;;;;;7.03;5.30;;;15.70;69.80;;;;;;5068480;28;20072;-47
2023/09/27 06:50:23;;;;;;;5.85;5.22;;;15.80;69.90;;;;;;5070187;28;20127;-46
2023/09/27 06:52:50;;;;;;;6.80;6.18;;;15.80;70.00;;;;;;5064597;28;20048;-47
2023/09/27 06:55:29;;;;;;;5.63;5.03;;;15.80;70.00;;;;;;5065629;28;20584;-48
2023/09/27 06:57:55;;;;;;;7.10;5.82;;;15.90;70.10;;;;;;5069742;28;20052;-50
2023/09/27 07:00:24;;;;;;;6.15;5.35;;;15.90;70.30;;;;;;5070039;28;20068;-49
2023/09/27 07:02:52;;;;;;;6.05;4.93;;;15.90;70.40;;;;;;5061349;28;20559;-47
2023/09/27 07:05:24;;;;;;;6.78;5.28;;;16.00;70.60;;;;;;5062268;28;20488;-50
2023/09/27 07:07:53;;;;;;;;;;;16.10;70.80;;;;;;5067905;28;20498;-46
2023/09/27 07:10:20;;;;;;;7.90;5.22;;;16.20;71.10;;;;;;5070024;28;20484;-45
2023/09/27 07:12:48;;;;;;;6.55;5.80;;;16.20;70.50;;;;;;5058460;28;20041;-47
2023/09/27 07:15:19;;;;;;;6.13;5.60;;;16.30;70.80;;;;;;5069230;28;20530;-47
2023/09/27 07:17:48;;;;;;;6.60;6.00;;;16.40;71.00;;;;;;5057839;28;20048;-49
2023/09/27 07:20:24;;;;;;;6.00;5.40;;;16.50;71.10;;;;;;5067817;28;20045;-46
2023/09/27 07:22:54;;;;;;;8.73;5.18;;;16.50;71.20;;;;;;5066652;28;20043;-48
2023/09/27 07:25:25;;;;;;;8.82;5.78;;;16.70;71.10;;;;;;5068746;28;20040;-50
2023/09/27 07:27:51;;;;;;;6.88;6.18;;;16.70;71.10;;;;;;5069363;28;20048;-50
2023/09/27 07:30:23;;;;;;;9.70;6.20;;;16.90;71.10;;;;;;5085694;23;20076;-48
2023/09/27 07:32:51;;;;;;;9.15;5.63;;;16.90;71.10;;;;;;5058699;28;20071;-51
2023/09/27 07:35:18;;;;;;;8.38;5.82;;;17.00;70.90;;;;;;5058973;28;20041;-50
2023/09/27 07:37:47;;;;;;;7.25;5.38;;;17.10;71.00;;;;;;5063309;28;20041;-53
2023/09/27 07:40:14;;;;;;;10.27;5.85;;;17.30;71.00;;;;;;5059928;28;20127;-52
2023/09/27 07:42:45;;;;;;;8.95;6.00;;;17.30;70.90;;;;;;5047765;28;20044;-53
2023/09/27 07:45:21;;;;;;;7.50;5.53;;;17.40;70.90;;;;;;5042974;28;20037;-52
2023/09/27 07:47:50;;;;;;;8.65;5.32;;;17.50;70.90;;;;;;5048931;28;20120;-52
2023/09/27 07:50:19;;;;;;;8.45;5.25;;;17.60;70.90;;;;;;5051746;28;20511;-52
2023/09/27 07:52:47;;;;;;;8.93;6.07;;;17.70;70.70;;;;;;5052037;28;20052;-53
2023/09/27 07:55:22;;;;;;;9.80;5.35;;;17.80;70.60;;;;;;5046498;28;20041;-53
2023/09/27 07:57:52;;;;;;;8.23;5.55;;;17.90;70.60;;;;;;5052497;28;20125;-53
2023/09/27 08:00:25;;;;;;;6.50;4.85;;;18.00;70.30;;;;;;5052577;28;20045;-50
2023/09/27 08:02:55;;;;;;;9.88;6.15;;;18.00;70.20;;;;;;5063643;28;20041;-51
2023/09/27 08:05:22;;;;;;;7.40;5.35;;;18.10;69.90;;;;;;5046556;28;20040;-53
2023/09/27 08:07:51;;;;;;;8.30;5.18;;;18.20;70.00;;;;;;5049731;28;20116;-52
2023/09/27 08:10:18;;;;;;;7.20;5.25;;;18.20;69.90;;;;;;5052793;28;20140;-52
2023/09/27 08:12:50;;;;;;;7.18;4.90;;;18.20;69.80;;;;;;5050363;28;20049;-50
2023/09/27 08:15:17;;;;;;;7.00;5.25;;;18.20;69.60;;;;;;5051275;28;20051;-52
2023/09/27 08:17:46;;;;;;;7.88;5.68;;;18.30;69.50;;;;;;5050112;28;20041;-52
2023/09/27 08:20:13;;;;;;;8.07;5.47;;;18.30;69.50;;;;;;5049937;28;20063;-52
2023/09/27 08:22:40;;;;;;;8.02;4.93;;;18.30;69.60;;;;;;5049929;28;20080;-52
2023/09/27 08:25:16;;;;;;;6.50;4.65;;;18.30;69.80;;;;;;5050204;28;20064;-52
2023/09/27 08:27:44;;;;;;;10.00;5.13;;;18.30;70.00;;;;;;5051926;28;20047;-52
2023/09/27 08:30:11;;;;;;;6.93;5.05;;;18.30;69.80;;;;;;5052273;28;20048;-52
2023/09/27 08:32:40;;;;;;;6.13;5.05;;;18.40;70.10;;;;;;5046776;28;20135;-52
2023/09/27 08:35:07;;;;;;;6.63;4.45;;;18.40;70.10;;;;;;5046045;28;20049;-49
2023/09/27 08:37:36;;;;;;;6.10;4.90;;;18.40;70.00;;;;;;5050361;28;20069;-52
2023/09/27 08:40:12;;;;;;;8.77;5.13;;;18.50;70.10;;;;;;5052044;28;20040;-51
2023/09/27 08:42:43;;;;;;;8.18;4.53;;;18.50;70.20;;;;;;5051173;28;20059;-51
2023/09/27 08:45:15;;;;;;;5.00;4.32;;;18.60;70.00;;;;;;5046949;28;20071;-49
2023/09/27 08:47:44;;;;;;;11.25;5.43;;;18.70;70.30;;;;;;5051606;28;20376;-52
2023/09/27 08:50:13;;;;;;;8.02;4.65;;;18.70;70.20;;;;;;5051130;28;20057;-53
2023/09/27 08:52:51;;;;;;;8.07;4.47;;;18.80;70.10;;;;;;5048711;28;20037;-52
2023/09/27 08:55:19;;;;;;;5.43;4.85;;;18.80;70.20;;;;;;5050167;28;20045;-51
2023/09/27 08:57:51;;;;;;;7.90;4.80;;;18.90;69.80;;;;;;5051631;28;20040;-52
2023/09/27 09:00:26;;;;;;;8.57;4.88;;;18.90;69.70;;;;;;5048055;28;20037;-52
2023/09/27 09:02:59;;;;;;;6.10;3.97;;;19.00;69.80;;;;;;5050902;28;20514;-53
2023/09/27 09:05:30;;;;;;;8.68;5.10;;;18.90;69.50;;;;;;5047484;28;20120;-51
2023/09/27 09:08:10;;;;;;;8.10;4.53;;;19.00;69.50;;;;;;5051023;28;20499;-52
2023/09/27 09:10:39;;;;;;;4.95;4.45;;;19.00;69.40;;;;;;5045790;28;20068;-51
2023/09/27 09:13:05;;;;;;;7.95;5.00;;;19.00;69.40;;;;;;5048105;28;20068;-53
2023/09/27 09:15:40;;;;;;;9.30;4.53;;;19.00;69.60;;;;;;5046510;28;20091;-52
2023/09/27 09:18:11;;;;;;;8.18;4.60;;;19.10;70.00;;;;;;5066090;28;20072;-51
2023/09/27 09:20:58;;;;;;;5.60;4.40;;;19.00;70.30;;;;;;5047683;28;20053;-49
2023/09/27 09:23:33;;;;;;;6.38;4.30;;;19.10;70.80;;;;;;5046533;28;20048;-52
2023/09/27 09:26:05;;;;;;;5.32;4.10;;;19.20;70.60;;;;;;5047197;28;20491;-53
2023/09/27 09:28:36;;;;;;;7.13;4.05;;;19.20;70.40;;;;;;5044914;28;20529;-49
2023/09/27 09:31:21;;;;;;;5.47;3.35;;;19.30;70.50;;;;;;5049411;28;20053;-52
2023/09/27 09:34:02;;;;;;;4.95;3.95;;;19.40;71.00;;;;;;5043512;28;20049;-52
2023/09/27 09:36:30;;;;;;;5.75;4.30;;;19.40;70.90;;;;;;5041662;28;20062;-51
2023/09/27 09:39:04;;;;;;;6.80;3.85;;;19.50;70.60;;;;;;5051259;28;20118;-53
2023/09/27 09:41:46;;;;;;;6.83;3.97;;;19.60;70.50;;;;;;5049709;28;20036;-53
2023/09/27 09:44:26;;;;;;;6.72;3.85;;;19.70;70.30;;;;;;5044424;28;20642;-52
2023/09/27 09:47:14;;;;;;;6.00;3.87;;;19.80;69.90;;;;;;5050100;28;20083;-48
2023/09/27 09:49:41;;;;;;;4.80;3.45;;;19.90;69.40;;;;;;5050826;28;20048;-52
2023/09/27 09:52:13;;;;;;;4.32;3.42;;;20.00;69.50;;;;;;5047433;28;20080;-52
2023/09/27 09:54:49;;;;;;;4.57;3.58;;;20.10;69.20;;;;;;5049494;28;20406;-52
2023/09/27 09:57:35;;;;;;;6.03;3.42;;;20.20;69.30;;;;;;5050054;28;20055;-51
2023/09/27 10:00:18;;;;;;;3.28;2.88;;;20.30;68.90;;;;;;5046651;28;20045;-53
2023/09/27 10:02:49;;;;;;;6.95;3.40;;;20.50;68.40;;;;;;5049443;28;20047;-53
2023/09/27 10:05:19;;;;;;;3.67;2.85;;;20.60;68.40;;;;;;5045281;28;20044;-52
2023/09/27 10:07:50;;;;;;;6.05;3.33;;;20.70;67.90;;;;;;5050700;28;20091;-53
2023/09/27 10:10:24;;;;;;;3.50;3.20;;;20.80;67.50;;;;;;5050175;28;20047;-53
2023/09/27 10:12:59;;;;;;;5.70;3.78;;;20.90;67.50;;;;;;5045663;28;20056;-51
2023/09/27 10:15:38;;;;;;;4.95;3.08;;;21.10;66.40;;;;;;5050235;28;20051;-53
2023/09/27 10:18:27;;;;;;;5.13;3.25;;;21.30;66.70;;;;;;5049050;28;20126;-53
2023/09/27 10:21:03;;;;;;;3.85;2.88;;;21.40;65.80;;;;;;5042102;28;20048;-52
2023/09/27 10:23:35;;;;;;;5.43;3.10;;;21.60;65.70;;;;;;5041726;28;20043;-53
2023/09/27 10:26:29;;;;;;;2.70;2.42;;;21.80;65.70;;;;;;5049321;28;20033;-49
2023/09/27 10:29:13;;;;;;;6.03;3.05;;;22.00;64.80;;;;;;5050644;28;20043;-53
2023/09/27 10:31:58;;;;;;;2.58;2.35;;;22.20;64.50;;;;;;5058174;28;20044;-53
2023/09/27 10:34:27;;;;;;;6.85;2.75;;;22.40;64.20;;;;;;5045178;28;20433;-52
2023/09/27 10:37:01;;;;;;;5.05;3.17;;;22.60;63.80;;;;;;5043545;28;20037;-53
2023/09/27 10:39:33;;;;;;;3.25;2.78;;;22.70;63.70;;;;;;5049711;28;20480;-51
2023/09/27 10:41:59;;;;;;;3.75;2.70;;;22.80;63.70;;;;;;5049447;28;20064;-53
2023/09/27 10:44:33;;;;;;;3.20;2.90;;;22.90;63.30;;;;;;5044981;28;20072;-53
2023/09/27 10:47:01;;;;;;;3.45;2.67;;;23.00;62.70;;;;;;5049251;28;20075;-52
2023/09/27 10:49:38;;;;;;;3.17;2.33;;;23.10;62.40;;;;;;5050383;28;20095;-53
2023/09/27 10:52:21;;;;;;;4.88;2.65;;;23.20;62.00;;;;;;5045771;28;20441;-51
2023/09/27 10:54:48;;;;;;;5.10;2.35;;;23.30;62.00;;;;;;5047519;28;20045;-52
2023/09/27 10:57:14;;;;;;;4.72;2.88;;;23.30;61.70;;;;;;5048690;28;20072;-53
2023/09/27 10:59:45;;;;;;;4.20;2.78;;;23.40;61.20;;;;;;5047649;28;20057;-52
2023/09/27 11:02:11;;;;;;;4.40;2.40;;;23.40;61.10;;;;;;5046598;28;20052;-53
2023/09/27 11:04:42;;;;;;;6.18;2.65;;;23.50;60.90;;;;;;5043558;28;20250;-53
2023/09/27 11:07:18;;;;;;;3.28;2.10;;;23.50;60.40;;;;;;5049291;28;20526;-53
2023/09/27 11:09:47;;;;;;;2.80;2.47;;;23.60;60.90;;;;;;5049606;28;20123;-53
2023/09/27 11:12:22;;;;;;;4.13;2.38;;;23.60;60.60;;;;;;5048911;28;20106;-52
2023/09/27 11:14:49;;;;;;;2.75;2.10;;;23.70;60.90;;;;;;5044115;28;20056;-53
2023/09/27 11:17:25;;;;;;;4.68;2.67;;;23.70;60.80;;;;;;5048790;28;20064;-51
2023/09/27 11:19:53;;;;;;;4.32;2.92;;;23.70;60.10;;;;;;5049754;28;20037;-48
2023/09/27 11:22:27;;;;;;;5.18;2.28;;;23.80;60.00;;;;;;5046979;28;20037;-51
2023/09/27 11:24:59;;;;;;;4.60;2.28;;;23.80;59.50;;;;;;5052542;28;20132;-52
2023/09/27 11:27:26;;;;;;;8.75;2.90;;;23.90;59.10;;;;;;5052653;28;20045;-53
2023/09/27 11:29:55;;;;;;;2.85;2.55;;;23.90;58.90;;;;;;5053265;28;20064;-51
2023/09/27 11:32:24;;;;;;;2.65;2.20;;;23.90;59.10;;;;;;5042123;28;20046;-53
2023/09/27 11:34:55;;;;;;;4.43;2.60;;;24.00;58.90;;;;;;5046842;28;20546;-50
2023/09/27 11:37:27;;;;;;;2.83;2.55;;;24.00;58.80;;;;;;5052714;28;20055;-52
2023/09/27 11:39:57;;;;;;;6.97;2.85;;;24.10;59.30;;;;;;5052867;28;20611;-53
2023/09/27 11:42:25;;;;;;;2.75;2.20;;;24.20;59.10;;;;;;5047908;28;20138;-54
2023/09/27 11:45:05;;;;;;;4.03;2.85;;;24.30;59.30;;;;;;5051767;28;20116;-52
2023/09/27 11:47:49;;;;;;;3.80;2.28;;;24.30;58.30;;;;;;5051507;28;20049;-54
2023/09/27 11:50:21;;;;;;;2.53;2.05;;;24.50;57.90;;;;;;5052096;28;20055;-53
2023/09/27 11:52:48;;;;;;;3.85;2.25;;;24.60;58.70;;;;;;5046255;28;20061;-54
2023/09/27 11:55:15;;;;;;;2.55;2.35;;;24.70;58.20;;;;;;5052048;28;20049;-54
2023/09/27 11:57:47;;;;;;;4.05;2.20;;;24.80;58.00;;;;;;5052809;28;20095;-53
2023/09/27 12:00:17;;;;;;;;;;;25.00;57.40;;;;;;5050662;28;20457;-52
2023/09/27 12:02:46;;;;;;;3.53;2.08;;;25.10;58.30;;;;;;5050383;28;20038;-54
2023/09/27 12:05:23;;;;;;;3.72;1.85;;;25.30;56.50;;;;;;5046492;28;20495;-53
2023/09/27 12:07:55;;;;;;;2.35;2.15;;;25.50;56.30;;;;;;5051214;28;20041;-52
2023/09/27 12:10:22;;;;;;;3.37;2.17;;;25.60;55.40;;;;;;5052053;28;20568;-51
2023/09/27 12:12:49;;;;;;;2.20;1.92;;;25.80;55.50;;;;;;5048630;28;20323;-53
2023/09/27 12:15:16;;;;;;;2.58;2.35;;;25.90;54.90;;;;;;5050819;28;20052;-51
2023/09/27 12:17:43;;;;;;;2.50;2.30;;;26.00;54.40;;;;;;5052292;28;20072;-53
2023/09/27 12:20:13;;;;;;;4.57;2.30;;;26.10;55.00;;;;;;5049528;28;20498;-54
2023/09/27 12:23:00;;;;;;;3.28;2.30;;;26.10;54.60;;;;;;5048519;28;20037;-53
2023/09/27 12:25:27;;;;;;;2.63;1.92;;;26.20;53.50;;;;;;5051348;28;20068;-54
2023/09/27 12:27:54;;;;;;;2.83;2.20;;;26.20;53.50;;;;;;5051446;28;20043;-52
2023/09/27 12:30:23;;;;;;;3.38;1.73;;;26.30;54.00;;;;;;5043446;28;20331;-52
2023/09/27 12:32:53;;;;;;;3.08;2.15;;;26.30;54.00;;;;;;5051664;28;20048;-53
2023/09/27 12:35:20;;;;;;;5.80;2.65;;;26.30;53.90;;;;;;5043064;28;20079;-52
2023/09/27 12:37:47;;;;;;;2.38;2.17;;;26.30;53.80;;;;;;5050625;28;20040;-55
2023/09/27 12:40:17;;;;;;;2.83;1.80;;;26.30;53.40;;;;;;5044327;28;20064;-54
2023/09/27 12:42:43;;;;;;;2.55;2.22;;;26.40;54.10;;;;;;5051428;28;20095;-53
2023/09/27 12:45:13;;;;;;;3.95;2.63;;;26.40;53.90;;;;;;5050753;28;20045;-53
2023/09/27 12:47:41;;;;;;;3.63;2.53;;;26.50;54.20;;;;;;5051708;28;20045;-51
2023/09/27 12:50:11;;;;;;;3.83;2.10;;;26.60;54.40;;;;;;5051834;28;20078;-50
2023/09/27 12:52:39;;;;;;;3.72;2.28;;;26.70;54.00;;;;;;5048736;28;20037;-54
2023/09/27 12:55:06;;;;;;;3.67;2.08;;;26.70;53.10;;;;;;5050313;28;20041;-53
2023/09/27 12:57:32;;;;;;;5.63;3.38;;;26.80;53.50;;;;;;5051175;28;20124;-54
2023/09/27 12:59:59;;;;;;;5.82;2.40;;;26.90;53.30;;;;;;5046729;28;20107;-54
2023/09/27 13:02:27;;;;;;;3.25;2.92;;;27.00;53.40;;;;;;5049736;28;20049;-54